sensor_id;sensor_type;location;lat;lon;timestamp;pressure;altitude;pressure_sealevel;temperature;humidity
40838;BME280;29632;49.168;9.848;2023-05-21T00:02:08;96460.22;;;23.18;39.60
40838;BME280;29632;49.168;9.848;2023-05-21T00:04:39;96457.78;;;23.17;39.49
40838;BME280;29632;49.168;9.848;2023-05-21T00:07:06;96465.75;;;23.17;39.70
40838;BME280;29632;49.168;9.848;2023-05-21T00:09:33;96458.84;;;23.16;39.72
40838;BME280;29632;49.168;9.848;2023-05-21T00:11:59;96458.28;;;23.14;39.80
40838;BME280;29632;49.168;9.848;2023-05-21T00:14:25;96456.66;;;23.13;39.36
40838;BME280;29632;49.168;9.848;2023-05-21T00:16:50;96456.88;;;23.11;39.61
40838;BME280;29632;49.168;9.848;2023-05-21T00:19:16;96452.63;;;23.10;39.68
40838;BME280;29632;49.168;9.848;2023-05-21T00:21:42;96452.84;;;23.09;39.52
40838;BME280;29632;49.168;9.848;2023-05-21T00:24:10;96457.59;;;23.07;39.60
40838;BME280;29632;49.168;9.848;2023-05-21T00:26:36;96448.97;;;23.05;39.49
40838;BME280;29632;49.168;9.848;2023-05-21T00:29:02;96441.50;;;23.02;39.68
40838;BME280;29632;49.168;9.848;2023-05-21T00:31:29;96447.03;;;23.00;39.54
40838;BME280;29632;49.168;9.848;2023-05-21T00:33:56;96440.09;;;22.99;39.61
40838;BME280;29632;49.168;9.848;2023-05-21T00:36:22;96430.75;;;22.96;39.66
40838;BME280;29632;49.168;9.848;2023-05-21T00:38:49;96442.19;;;22.97;39.82
40838;BME280;29632;49.168;9.848;2023-05-21T00:41:15;96434.44;;;22.95;39.90
40838;BME280;29632;49.168;9.848;2023-05-21T00:43:41;96433.06;;;22.93;39.86
40838;BME280;29632;49.168;9.848;2023-05-21T00:46:13;96433.53;;;22.90;40.03
40838;BME280;29632;49.168;9.848;2023-05-21T00:48:42;96425.22;;;22.86;39.96
40838;BME280;29632;49.168;9.848;2023-05-21T00:51:08;96431.56;;;22.85;39.91
40838;BME280;29632;49.168;9.848;2023-05-21T00:53:34;96418.50;;;22.84;39.95
40838;BME280;29632;49.168;9.848;2023-05-21T00:56:00;96419.56;;;22.83;39.71
40838;BME280;29632;49.168;9.848;2023-05-21T00:58:27;96423.47;;;22.80;39.88
40838;BME280;29632;49.168;9.848;2023-05-21T01:00:53;96426.34;;;22.78;39.75
40838;BME280;29632;49.168;9.848;2023-05-21T01:03:22;96430.06;;;22.77;39.89
40838;BME280;29632;49.168;9.848;2023-05-21T01:05:51;96424.19;;;22.75;39.89
40838;BME280;29632;49.168;9.848;2023-05-21T01:08:20;96430.50;;;22.74;39.78
40838;BME280;29632;49.168;9.848;2023-05-21T01:10:49;96425.44;;;22.73;39.89
40838;BME280;29632;49.168;9.848;2023-05-21T01:13:16;96419.56;;;22.71;40.04
40838;BME280;29632;49.168;9.848;2023-05-21T01:15:43;96419.78;;;22.69;40.04
40838;BME280;29632;49.168;9.848;2023-05-21T01:18:09;96412.88;;;22.68;39.84
40838;BME280;29632;49.168;9.848;2023-05-21T01:20:34;96412.03;;;22.68;39.82
40838;BME280;29632;49.168;9.848;2023-05-21T01:23:02;96405.13;;;22.67;40.08
40838;BME280;29632;49.168;9.848;2023-05-21T01:25:27;96421.28;;;22.65;40.07
40838;BME280;29632;49.168;9.848;2023-05-21T01:27:53;96411.47;;;22.66;39.94
40838;BME280;29632;49.168;9.848;2023-05-21T01:30:20;96413.53;;;22.63;39.92
40838;BME280;29632;49.168;9.848;2023-05-21T01:32:51;96415.63;;;22.61;39.93
40838;BME280;29632;49.168;9.848;2023-05-21T01:35:26;96411.34;;;22.60;40.14
40838;BME280;29632;49.168;9.848;2023-05-21T01:43:11;96405.34;;;22.53;40.29
40838;BME280;29632;49.168;9.848;2023-05-21T01:45:39;96409.28;;;22.51;40.20
40838;BME280;29632;49.168;9.848;2023-05-21T01:48:06;96403.13;;;22.50;40.07
40838;BME280;29632;49.168;9.848;2023-05-21T01:50:34;96410.53;;;22.48;40.41
40838;BME280;29632;49.168;9.848;2023-05-21T01:53:00;96403.84;;;22.46;40.13
40838;BME280;29632;49.168;9.848;2023-05-21T01:55:28;96402.22;;;22.44;40.19
40838;BME280;29632;49.168;9.848;2023-05-21T01:57:55;96405.09;;;22.43;40.33
40838;BME280;29632;49.168;9.848;2023-05-21T02:00:21;96410.41;;;22.43;40.38
40838;BME280;29632;49.168;9.848;2023-05-21T02:02:48;96402.66;;;22.41;40.26
40838;BME280;29632;49.168;9.848;2023-05-21T02:05:14;96407.41;;;22.39;40.26
40838;BME280;29632;49.168;9.848;2023-05-21T02:07:40;96407.41;;;22.39;40.26
40838;BME280;29632;49.168;9.848;2023-05-21T02:10:06;96403.13;;;22.38;40.44
40838;BME280;29632;49.168;9.848;2023-05-21T02:12:32;96411.91;;;22.39;40.27
40838;BME280;29632;49.168;9.848;2023-05-21T02:14:58;96403.38;;;22.37;40.47
40838;BME280;29632;49.168;9.848;2023-05-21T02:17:24;96408.91;;;22.35;40.41
40838;BME280;29632;49.168;9.848;2023-05-21T02:19:50;96402.19;;;22.33;40.52
40838;BME280;29632;49.168;9.848;2023-05-21T02:22:16;96407.50;;;22.33;40.37
40838;BME280;29632;49.168;9.848;2023-05-21T02:24:42;96402.41;;;22.31;40.49
40838;BME280;29632;49.168;9.848;2023-05-21T02:27:08;96404.25;;;22.31;40.43
40838;BME280;29632;49.168;9.848;2023-05-21T02:29:35;96406.34;;;22.29;40.32
40838;BME280;29632;49.168;9.848;2023-05-21T02:32:01;96402.25;;;22.26;40.46
40838;BME280;29632;49.168;9.848;2023-05-21T02:34:27;96397.19;;;22.24;40.66
40838;BME280;29632;49.168;9.848;2023-05-21T02:36:55;96395.78;;;22.22;40.50
40838;BME280;29632;49.168;9.848;2023-05-21T02:39:21;96398.88;;;22.19;40.58
40838;BME280;29632;49.168;9.848;2023-05-21T02:41:47;96390.59;;;22.15;40.57
40838;BME280;29632;49.168;9.848;2023-05-21T02:44:12;96396.94;;;22.14;40.72
40838;BME280;29632;49.168;9.848;2023-05-21T02:46:38;96389.22;;;22.13;40.71
40838;BME280;29632;49.168;9.848;2023-05-21T02:49:04;96392.88;;;22.12;40.56
40838;BME280;29632;49.168;9.848;2023-05-21T02:51:29;96390.69;;;22.09;40.63
40838;BME280;29632;49.168;9.848;2023-05-21T02:53:56;96392.53;;;22.08;40.56
40838;BME280;29632;49.168;9.848;2023-05-21T02:56:21;96390.94;;;22.07;40.73
40838;BME280;29632;49.168;9.848;2023-05-21T02:58:47;96390.09;;;22.06;40.66
40838;BME280;29632;49.168;9.848;2023-05-21T03:01:13;96386.66;;;22.06;40.67
40838;BME280;29632;49.168;9.848;2023-05-21T03:03:39;96388.72;;;22.04;40.99
40838;BME280;29632;49.168;9.848;2023-05-21T03:06:05;96385.28;;;22.03;40.60
40838;BME280;29632;49.168;9.848;2023-05-21T03:08:30;96387.09;;;22.03;40.56
40838;BME280;29632;49.168;9.848;2023-05-21T03:10:56;96386.50;;;22.01;40.61
40838;BME280;29632;49.168;9.848;2023-05-21T03:13:22;96389.38;;;21.99;40.81
40838;BME280;29632;49.168;9.848;2023-05-21T03:15:47;96391.47;;;21.97;40.74
40838;BME280;29632;49.168;9.848;2023-05-21T03:18:13;96387.19;;;21.96;40.67
40838;BME280;29632;49.168;9.848;2023-05-21T03:20:39;96389.25;;;21.94;40.71
40838;BME280;29632;49.168;9.848;2023-05-21T03:23:08;96386.25;;;21.91;40.81
40838;BME280;29632;49.168;9.848;2023-05-21T03:25:34;96389.94;;;21.90;40.88
40838;BME280;29632;49.168;9.848;2023-05-21T03:28:01;96391.19;;;21.87;41.03
40838;BME280;29632;49.168;9.848;2023-05-21T03:30:26;96390.41;;;21.86;40.66
40838;BME280;29632;49.168;9.848;2023-05-21T03:32:52;96392.47;;;21.84;40.89
40838;BME280;29632;49.168;9.848;2023-05-21T03:35:18;96392.69;;;21.83;40.96
40838;BME280;29632;49.168;9.848;2023-05-21T03:37:43;96392.69;;;21.83;40.88
40838;BME280;29632;49.168;9.848;2023-05-21T03:40:10;96393.94;;;21.80;41.00
40838;BME280;29632;49.168;9.848;2023-05-21T03:42:36;96393.94;;;21.80;40.92
40838;BME280;29632;49.168;9.848;2023-05-21T03:45:02;96390.69;;;21.78;40.85
40838;BME280;29632;49.168;9.848;2023-05-21T03:47:28;96389.91;;;21.78;40.96
40838;BME280;29632;49.168;9.848;2023-05-21T03:49:53;96389.31;;;21.76;40.96
40838;BME280;29632;49.168;9.848;2023-05-21T03:52:19;96386.88;;;21.74;40.89
40838;BME280;29632;49.168;9.848;2023-05-21T03:54:45;96385.25;;;21.73;40.96
40838;BME280;29632;49.168;9.848;2023-05-21T03:57:10;96385.25;;;21.73;40.92
40838;BME280;29632;49.168;9.848;2023-05-21T03:59:36;96385.47;;;21.72;40.94
40838;BME280;29632;49.168;9.848;2023-05-21T04:02:02;96382.84;;;21.72;40.98
40838;BME280;29632;49.168;9.848;2023-05-21T04:04:27;96382.03;;;21.71;41.13
40838;BME280;29632;49.168;9.848;2023-05-21T04:06:53;96380.41;;;21.70;40.89
40838;BME280;29632;49.168;9.848;2023-05-21T04:09:20;96389.41;;;21.69;40.96
40838;BME280;29632;49.168;9.848;2023-05-21T04:11:46;96388.59;;;21.68;41.12
40838;BME280;29632;49.168;9.848;2023-05-21T04:14:12;96394.91;;;21.67;41.08
40838;BME280;29632;49.168;9.848;2023-05-21T04:16:38;96397.56;;;21.67;40.93
40838;BME280;29632;49.168;9.848;2023-05-21T04:19:05;96393.28;;;21.66;40.97
40838;BME280;29632;49.168;9.848;2023-05-21T04:21:30;96400.44;;;21.66;41.12
40838;BME280;29632;49.168;9.848;2023-05-21T04:23:57;96397.78;;;21.66;41.17
40838;BME280;29632;49.168;9.848;2023-05-21T04:26:22;96401.47;;;21.65;41.08
40838;BME280;29632;49.168;9.848;2023-05-21T04:28:49;96405.75;;;21.66;41.05
40838;BME280;29632;49.168;9.848;2023-05-21T04:31:15;96411.25;;;21.64;41.12
40838;BME280;29632;49.168;9.848;2023-05-21T04:33:41;96407.00;;;21.63;41.16
40838;BME280;29632;49.168;9.848;2023-05-21T04:36:10;96403.53;;;21.63;41.20
40838;BME280;29632;49.168;9.848;2023-05-21T04:38:36;96409.66;;;21.63;41.07
40838;BME280;29632;49.168;9.848;2023-05-21T04:41:03;96404.56;;;21.62;41.06
40838;BME280;29632;49.168;9.848;2023-05-21T04:43:28;96412.53;;;21.62;41.17
40838;BME280;29632;49.168;9.848;2023-05-21T04:45:54;96414.13;;;21.63;41.14
40838;BME280;29632;49.168;9.848;2023-05-21T04:48:24;96414.34;;;21.61;41.09
40838;BME280;29632;49.168;9.848;2023-05-21T04:50:51;96413.53;;;21.61;41.22
40838;BME280;29632;49.168;9.848;2023-05-21T04:53:17;96410.91;;;21.61;41.50
40838;BME280;29632;49.168;9.848;2023-05-21T04:55:43;96410.09;;;21.60;41.31
40838;BME280;29632;49.168;9.848;2023-05-21T04:58:09;96404.78;;;21.60;41.26
40838;BME280;29632;49.168;9.848;2023-05-21T05:00:37;96407.44;;;21.60;41.17
40838;BME280;29632;49.168;9.848;2023-05-21T05:03:03;96410.09;;;21.60;41.40
40838;BME280;29632;49.168;9.848;2023-05-21T05:05:28;96418.84;;;21.61;41.16
40838;BME280;29632;49.168;9.848;2023-05-21T05:07:54;96412.53;;;21.62;41.38
40838;BME280;29632;49.168;9.848;2023-05-21T05:10:20;96414.13;;;21.63;41.38
40838;BME280;29632;49.168;9.848;2023-05-21T05:12:47;96413.09;;;21.64;41.25
40838;BME280;29632;49.168;9.848;2023-05-21T05:15:13;96416.34;;;21.66;41.30
40838;BME280;29632;49.168;9.848;2023-05-21T05:17:38;96411.84;;;21.66;41.37
40838;BME280;29632;49.168;9.848;2023-05-21T05:20:06;96416.13;;;21.67;41.24
40838;BME280;29632;49.168;9.848;2023-05-21T05:22:32;96412.44;;;21.68;41.18
40838;BME280;29632;49.168;9.848;2023-05-21T05:24:58;96409.53;;;21.70;41.28
40838;BME280;29632;49.168;9.848;2023-05-21T05:27:23;96409.09;;;21.73;41.21
40838;BME280;29632;49.168;9.848;2023-05-21T05:29:49;96410.75;;;21.74;41.39
40838;BME280;29632;49.168;9.848;2023-05-21T05:32:15;96408.66;;;21.76;41.25
40838;BME280;29632;49.168;9.848;2023-05-21T05:34:40;96399.69;;;21.77;41.24
40838;BME280;29632;49.168;9.848;2023-05-21T05:37:07;96399.44;;;21.79;41.27
40838;BME280;29632;49.168;9.848;2023-05-21T05:39:32;96405.34;;;21.81;41.11
40838;BME280;29632;49.168;9.848;2023-05-21T05:41:58;96408.59;;;21.83;41.34
40838;BME280;29632;49.168;9.848;2023-05-21T05:44:24;96406.75;;;21.83;41.29
40838;BME280;29632;49.168;9.848;2023-05-21T05:46:49;96409.38;;;21.83;41.33
40838;BME280;29632;49.168;9.848;2023-05-21T05:49:15;96399.59;;;21.84;41.31
40838;BME280;29632;49.168;9.848;2023-05-21T05:51:41;96408.94;;;21.86;41.16
40838;BME280;29632;49.168;9.848;2023-05-21T05:54:07;96400.56;;;21.90;41.27
40838;BME280;29632;49.168;9.848;2023-05-21T05:56:32;96406.44;;;21.92;41.44
40838;BME280;29632;49.168;9.848;2023-05-21T05:58:58;96411.28;;;21.95;41.35
40838;BME280;29632;49.168;9.848;2023-05-21T06:01:23;96409.44;;;21.95;41.16
40838;BME280;29632;49.168;9.848;2023-05-21T06:03:51;96416.13;;;21.98;41.46
40838;BME280;29632;49.168;9.848;2023-05-21T06:06:17;96417.53;;;22.00;41.33
40838;BME280;29632;49.168;9.848;2023-05-21T06:08:42;96419.97;;;22.02;41.23
40838;BME280;29632;49.168;9.848;2023-05-21T06:11:08;96406.47;;;22.03;41.60
40838;BME280;29632;49.168;9.848;2023-05-21T06:13:34;96406.00;;;22.06;41.39
40838;BME280;29632;49.168;9.848;2023-05-21T06:16:00;96407.41;;;22.09;41.28
40838;BME280;29632;49.168;9.848;2023-05-21T06:18:25;96412.50;;;22.11;41.33
40838;BME280;29632;49.168;9.848;2023-05-21T06:20:51;96410.66;;;22.11;41.42
40838;BME280;29632;49.168;9.848;2023-05-21T06:23:17;96405.13;;;22.13;41.24
40838;BME280;29632;49.168;9.848;2023-05-21T06:25:42;96408.56;;;22.13;41.46
40838;BME280;29632;49.168;9.848;2023-05-21T06:28:08;96409.97;;;22.16;41.29
40838;BME280;29632;49.168;9.848;2023-05-21T06:30:34;96405.25;;;22.18;41.46
40838;BME280;29632;49.168;9.848;2023-05-21T06:32:59;96408.47;;;22.20;41.43
40838;BME280;29632;49.168;9.848;2023-05-21T06:35:25;96409.63;;;22.24;41.25
40838;BME280;29632;49.168;9.848;2023-05-21T06:37:51;96413.91;;;22.25;41.34
40838;BME280;29632;49.168;9.848;2023-05-21T06:40:16;96408.38;;;22.27;41.34
40838;BME280;29632;49.168;9.848;2023-05-21T06:42:42;96417.75;;;22.29;41.39
40838;BME280;29632;49.168;9.848;2023-05-21T06:45:08;96414.06;;;22.30;41.42
40838;BME280;29632;49.168;9.848;2023-05-21T06:47:33;96413.03;;;22.31;41.57
40838;BME280;29632;49.168;9.848;2023-05-21T06:49:59;96412.22;;;22.31;41.27
40838;BME280;29632;49.168;9.848;2023-05-21T06:52:25;96418.81;;;22.28;41.45
40838;BME280;29632;49.168;9.848;2023-05-21T06:54:51;96404.09;;;22.25;41.49
40838;BME280;29632;49.168;9.848;2023-05-21T06:57:17;96414.72;;;22.25;41.59
40838;BME280;29632;49.168;9.848;2023-05-21T06:59:42;96418.16;;;22.26;41.48
40838;BME280;29632;49.168;9.848;2023-05-21T07:02:08;96411.25;;;22.25;41.47
40838;BME280;29632;49.168;9.848;2023-05-21T07:04:34;96420.00;;;22.25;41.67
40838;BME280;29632;49.168;9.848;2023-05-21T07:07:00;96421.06;;;22.24;41.56
40838;BME280;29632;49.168;9.848;2023-05-21T07:09:29;96425.94;;;22.28;41.42
40838;BME280;29632;49.168;9.848;2023-05-21T07:11:54;96420.41;;;22.29;41.58
40838;BME280;29632;49.168;9.848;2023-05-21T07:14:20;96416.72;;;22.30;41.41
40838;BME280;29632;49.168;9.848;2023-05-21T07:16:46;96428.13;;;22.31;41.56
40838;BME280;29632;49.168;9.848;2023-05-21T07:19:11;96423.41;;;22.33;41.54
40838;BME280;29632;49.168;9.848;2023-05-21T07:21:37;96425.38;;;22.37;41.24
40838;BME280;29632;49.168;9.848;2023-05-21T07:24:02;96429.41;;;22.40;41.44
40838;BME280;29632;49.168;9.848;2023-05-21T07:26:28;96428.97;;;22.43;41.66
40838;BME280;29632;49.168;9.848;2023-05-21T07:28:54;96432.19;;;22.45;41.47
40838;BME280;29632;49.168;9.848;2023-05-21T07:31:22;96425.88;;;22.46;41.48
40838;BME280;29632;49.168;9.848;2023-05-21T07:33:49;96424.38;;;22.50;41.43
40838;BME280;29632;49.168;9.848;2023-05-21T07:36:15;96429.78;;;22.55;41.47
40838;BME280;29632;49.168;9.848;2023-05-21T07:38:41;96427.25;;;22.60;41.30
40838;BME280;29632;49.168;9.848;2023-05-21T07:41:07;96429.91;;;22.60;41.54
40838;BME280;29632;49.168;9.848;2023-05-21T07:43:34;96429.13;;;22.60;41.54
40838;BME280;29632;49.168;9.848;2023-05-21T07:45:59;96427.03;;;22.62;41.67
40838;BME280;29632;49.168;9.848;2023-05-21T07:48:25;96427.63;;;22.64;41.65
40838;BME280;29632;49.168;9.848;2023-05-21T07:50:51;96432.25;;;22.69;41.62
40838;BME280;29632;49.168;9.848;2023-05-21T07:53:17;96427.28;;;22.72;41.63
40838;BME280;29632;49.168;9.848;2023-05-21T07:55:43;96421.31;;;22.77;41.40
40838;BME280;29632;49.168;9.848;2023-05-21T07:58:15;96430.63;;;22.79;41.32
40838;BME280;29632;49.168;9.848;2023-05-21T08:00:46;96421.38;;;22.82;41.33
40838;BME280;29632;49.168;9.848;2023-05-21T08:03:15;96435.84;;;22.86;41.61
40838;BME280;29632;49.168;9.848;2023-05-21T08:05:42;96433.75;;;22.88;41.29
40838;BME280;29632;49.168;9.848;2023-05-21T08:08:16;96434.34;;;22.90;41.58
40838;BME280;29632;49.168;9.848;2023-05-21T08:10:43;96433.31;;;22.91;41.34
40838;BME280;29632;49.168;9.848;2023-05-21T08:13:12;96432.03;;;22.94;41.63
40838;BME280;29632;49.168;9.848;2023-05-21T08:15:38;96431.00;;;22.95;41.63
40838;BME280;29632;49.168;9.848;2023-05-21T08:18:03;96432.94;;;22.99;41.47
40838;BME280;29632;49.168;9.848;2023-05-21T08:20:30;96430.41;;;23.05;41.64
40838;BME280;29632;49.168;9.848;2023-05-21T08:22:57;96428.72;;;23.10;41.32
40838;BME280;29632;49.168;9.848;2023-05-21T08:25:27;96432.28;;;23.16;41.26
40838;BME280;29632;49.168;9.848;2023-05-21T08:27:53;96426.03;;;23.22;41.69
40838;BME280;29632;49.168;9.848;2023-05-21T08:30:19;96432.28;;;23.28;41.35
40838;BME280;29632;49.168;9.848;2023-05-21T08:32:46;96431.09;;;23.35;41.38
40838;BME280;29632;49.168;9.848;2023-05-21T08:35:11;96427.53;;;23.42;41.37
40838;BME280;29632;49.168;9.848;2023-05-21T08:37:37;96426.34;;;23.49;41.13
40838;BME280;29632;49.168;9.848;2023-05-21T08:40:03;96430.72;;;23.55;41.40
40838;BME280;29632;49.168;9.848;2023-05-21T08:42:49;96436.72;;;23.63;41.34
40838;BME280;29632;49.168;9.848;2023-05-21T08:45:19;96432.63;;;23.72;41.25
40838;BME280;29632;49.168;9.848;2023-05-21T08:47:45;96431.69;;;23.78;40.99
40838;BME280;29632;49.168;9.848;2023-05-21T08:50:12;96433.44;;;23.84;41.24
40838;BME280;29632;49.168;9.848;2023-05-21T08:52:38;96436.53;;;23.93;40.92
40838;BME280;29632;49.168;9.848;2023-05-21T08:55:05;96434.28;;;24.02;41.14
40838;BME280;29632;49.168;9.848;2023-05-21T08:57:31;96429.06;;;24.07;41.39
40838;BME280;29632;49.168;9.848;2023-05-21T08:59:58;96424.41;;;24.14;41.18
40838;BME280;29632;49.168;9.848;2023-05-21T09:02:23;96436.50;;;24.22;40.99
40838;BME280;29632;49.168;9.848;2023-05-21T09:04:50;96429.22;;;24.29;41.03
40838;BME280;29632;49.168;9.848;2023-05-21T09:07:25;96430.66;;;24.37;41.03
40838;BME280;29632;49.168;9.848;2023-05-21T09:10:05;96433.16;;;24.43;41.05
40838;BME280;29632;49.168;9.848;2023-05-21T09:12:33;96431.38;;;24.49;41.07
40838;BME280;29632;49.168;9.848;2023-05-21T09:14:59;96424.31;;;24.55;40.97
40838;BME280;29632;49.168;9.848;2023-05-21T09:17:25;96428.44;;;24.62;40.92
40838;BME280;29632;49.168;9.848;2023-05-21T09:25:07;96419.25;;;24.87;40.82
40838;BME280;29632;49.168;9.848;2023-05-21T09:27:33;96416.97;;;24.96;40.83
40838;BME280;29632;49.168;9.848;2023-05-21T09:30:00;96418.97;;;25.05;40.74
40838;BME280;29632;49.168;9.848;2023-05-21T09:32:26;96420.16;;;25.15;40.50
40838;BME280;29632;49.168;9.848;2023-05-21T09:34:51;96414.16;;;25.24;40.70
40838;BME280;29632;49.168;9.848;2023-05-21T09:37:17;96414.06;;;25.36;40.79
40838;BME280;29632;49.168;9.848;2023-05-21T09:39:42;96413.97;;;25.48;40.30
40838;BME280;29632;49.168;9.848;2023-05-21T09:42:11;96415.19;;;25.62;40.61
40838;BME280;29632;49.168;9.848;2023-05-21T09:44:36;96410.47;;;25.70;40.31
40838;BME280;29632;49.168;9.848;2023-05-21T09:47:02;96414.81;;;25.76;40.17
40838;BME280;29632;49.168;9.848;2023-05-21T09:49:28;96427.44;;;25.86;40.34
40838;BME280;29632;49.168;9.848;2023-05-21T09:51:55;96422.50;;;25.94;40.24
40838;BME280;29632;49.168;9.848;2023-05-21T09:54:22;96418.34;;;26.04;40.26
40838;BME280;29632;49.168;9.848;2023-05-21T09:56:50;96414.41;;;26.11;40.18
40838;BME280;29632;49.168;9.848;2023-05-21T09:59:15;96420.34;;;26.18;40.29
40838;BME280;29632;49.168;9.848;2023-05-21T10:01:41;96420.16;;;26.25;40.09
40838;BME280;29632;49.168;9.848;2023-05-21T10:04:08;96411.69;;;26.33;39.88
40838;BME280;29632;49.168;9.848;2023-05-21T10:06:41;96416.06;;;26.45;40.14
40838;BME280;29632;49.168;9.848;2023-05-21T10:09:10;96420.94;;;26.53;39.96
40838;BME280;29632;49.168;9.848;2023-05-21T10:11:39;96421.53;;;26.60;39.83
40838;BME280;29632;49.168;9.848;2023-05-21T10:14:08;96422.41;;;26.66;39.84
40838;BME280;29632;49.168;9.848;2023-05-21T10:16:38;96420.28;;;26.68;40.08
40838;BME280;29632;49.168;9.848;2023-05-21T10:19:05;96418.72;;;26.72;39.85
40838;BME280;29632;49.168;9.848;2023-05-21T10:21:35;96425.97;;;26.82;40.06
40838;BME280;29632;49.168;9.848;2023-05-21T10:24:01;96420.94;;;26.85;39.67
40838;BME280;29632;49.168;9.848;2023-05-21T10:26:27;96423.91;;;26.89;40.04
40838;BME280;29632;49.168;9.848;2023-05-21T10:28:54;96418.59;;;26.94;39.75
40838;BME280;29632;49.168;9.848;2023-05-21T10:31:20;96425.59;;;27.00;39.60
40838;BME280;29632;49.168;9.848;2023-05-21T10:33:47;96420.53;;;27.04;39.51
40838;BME280;29632;49.168;9.848;2023-05-21T10:36:15;96422.97;;;27.10;39.77
40838;BME280;29632;49.168;9.848;2023-05-21T10:38:40;96413.38;;;27.15;39.65
40838;BME280;29632;49.168;9.848;2023-05-21T10:41:08;96421.41;;;27.20;39.44
40838;BME280;29632;49.168;9.848;2023-05-21T10:43:55;96415.31;;;27.24;39.49
40838;BME280;29632;49.168;9.848;2023-05-21T10:59:59;96420.78;;;27.50;39.29
40838;BME280;29632;49.168;9.848;2023-05-21T11:02:25;96414.91;;;27.53;39.18
40838;BME280;29632;49.168;9.848;2023-05-21T11:04:57;96416.28;;;27.56;39.23
40838;BME280;29632;49.168;9.848;2023-05-21T11:07:48;96419.75;;;27.56;39.23
40838;BME280;29632;49.168;9.848;2023-05-21T11:13:04;96421.38;;;27.62;38.98
40838;BME280;29632;49.168;9.848;2023-05-21T11:15:30;96421.38;;;27.67;39.06
40838;BME280;29632;49.168;9.848;2023-05-21T11:18:17;96416.03;;;27.67;38.88
40838;BME280;29632;49.168;9.848;2023-05-21T11:20:49;96420.91;;;27.76;38.77
40838;BME280;29632;49.168;9.848;2023-05-21T11:23:15;96421.16;;;27.79;38.68
40838;BME280;29632;49.168;9.848;2023-05-21T11:25:41;96423.06;;;27.84;39.00
40838;BME280;29632;49.168;9.848;2023-05-21T11:28:06;96420.94;;;27.86;38.71
40838;BME280;29632;49.168;9.848;2023-05-21T11:30:35;96419.03;;;27.86;38.60
40838;BME280;29632;49.168;9.848;2023-05-21T11:35:37;96413.47;;;27.93;38.38
40838;BME280;29632;49.168;9.848;2023-05-21T11:38:03;96416.69;;;27.95;38.48
40838;BME280;29632;49.168;9.848;2023-05-21T11:40:34;96412.97;;;28.01;38.71
40838;BME280;29632;49.168;9.848;2023-05-21T11:42:59;96417.50;;;28.06;38.77
40838;BME280;29632;49.168;9.848;2023-05-21T11:45:29;96414.59;;;28.13;38.14
40838;BME280;29632;49.168;9.848;2023-05-21T11:47:56;96408.19;;;28.19;38.30
40838;BME280;29632;49.168;9.848;2023-05-21T11:50:21;96409.53;;;28.27;38.28
40838;BME280;29632;49.168;9.848;2023-05-21T11:52:48;96403.91;;;28.38;38.30
40838;BME280;29632;49.168;9.848;2023-05-21T11:55:14;96414.38;;;28.45;38.24
40838;BME280;29632;49.168;9.848;2023-05-21T11:57:41;96403.09;;;28.48;38.37
40838;BME280;29632;49.168;9.848;2023-05-21T12:00:12;96409.28;;;28.54;38.32
40838;BME280;29632;49.168;9.848;2023-05-21T12:02:51;96413.59;;;28.60;37.97
40838;BME280;29632;49.168;9.848;2023-05-21T12:05:17;96415.72;;;28.63;37.83
40838;BME280;29632;49.168;9.848;2023-05-21T12:07:45;96423.78;;;28.68;38.13
40838;BME280;29632;49.168;9.848;2023-05-21T12:10:12;96416.78;;;28.72;37.82
40838;BME280;29632;49.168;9.848;2023-05-21T12:12:38;96419.19;;;28.79;38.04
40838;BME280;29632;49.168;9.848;2023-05-21T12:15:04;96418.66;;;28.87;37.74
40838;BME280;29632;49.168;9.848;2023-05-21T12:17:31;96424.81;;;28.93;37.87
40838;BME280;29632;49.168;9.848;2023-05-21T12:19:57;96433.38;;;29.00;37.95
40838;BME280;29632;49.168;9.848;2023-05-21T12:22:23;96438.22;;;28.98;37.57
40838;BME280;29632;49.168;9.848;2023-05-21T12:24:50;96433.38;;;29.00;37.43
40838;BME280;29632;49.168;9.848;2023-05-21T12:27:16;96435.25;;;28.99;37.59
40838;BME280;29632;49.168;9.848;2023-05-21T12:29:43;96441.16;;;28.96;37.78
40838;BME280;29632;49.168;9.848;2023-05-21T12:32:11;96428.28;;;28.93;37.68
40838;BME280;29632;49.168;9.848;2023-05-21T12:34:44;96437.94;;;28.94;37.55
40838;BME280;29632;49.168;9.848;2023-05-21T12:37:21;96425.88;;;28.97;37.66
40838;BME280;29632;49.168;9.848;2023-05-21T12:39:54;96429.91;;;28.99;37.51
40838;BME280;29632;49.168;9.848;2023-05-21T12:42:24;96432.59;;;28.99;37.89
40838;BME280;29632;49.168;9.848;2023-05-21T12:44:52;96436.84;;;29.00;37.70
40838;BME280;29632;49.168;9.848;2023-05-21T12:47:18;96433.63;;;29.04;37.46
40838;BME280;29632;49.168;9.848;2023-05-21T12:49:45;96429.91;;;29.05;37.53
40838;BME280;29632;49.168;9.848;2023-05-21T12:52:15;96436.84;;;29.06;37.87
40838;BME280;29632;49.168;9.848;2023-05-21T12:54:44;96436.31;;;29.09;37.74
40838;BME280;29632;49.168;9.848;2023-05-21T12:57:15;96438.72;;;29.10;37.51
40838;BME280;29632;49.168;9.848;2023-05-21T13:02:26;96437.94;;;29.20;37.54
40838;BME280;29632;49.168;9.848;2023-05-21T13:04:57;96435.78;;;29.22;37.55
40838;BME280;29632;49.168;9.848;2023-05-21T13:07:27;96437.66;;;29.22;37.37
40838;BME280;29632;49.168;9.848;2023-05-21T13:09:54;96443.56;;;29.18;37.44
40838;BME280;29632;49.168;9.848;2023-05-21T13:12:27;96445.16;;;29.19;37.38
40838;BME280;29632;49.168;9.848;2023-05-21T13:14:54;96438.75;;;29.21;37.38
40838;BME280;29632;49.168;9.848;2023-05-21T13:17:21;96439.81;;;29.19;37.35
40838;BME280;29632;49.168;9.848;2023-05-21T13:20:12;96427.75;;;29.17;37.73
40838;BME280;29632;49.168;9.848;2023-05-21T13:22:46;96436.31;;;29.14;37.60
40838;BME280;29632;49.168;9.848;2023-05-21T13:25:19;96431.22;;;29.12;37.77
40838;BME280;29632;49.168;9.848;2023-05-21T13:27:46;96435.00;;;29.16;37.40
40838;BME280;29632;49.168;9.848;2023-05-21T13:30:12;96433.66;;;29.19;37.32
40838;BME280;29632;49.168;9.848;2023-05-21T13:32:39;96432.28;;;29.22;37.28